Time;durP1;ratioP1;P1;durP2;ratioP2;P2;SDS_P1;SDS_P2;PMS_P1;PMS_P2;Temp;Humidity;BMP_temperature;BMP_pressure;BME280_temperature;BME280_humidity;BME280_pressure;Samples;Min_cycle;Max_cycle;Signal;HPM_P1;HPM_P2
2021/12/02 00:00:34;;;;;;;2.28;0.70;;;6.60;87.50;;;;;;5012986;28;20113;-45
2021/12/02 00:03:03;;;;;;;5.10;0.82;;;6.60;87.10;;;;;;5010565;28;20084;-47
2021/12/02 00:05:28;;;;;;;2.47;0.77;;;6.50;89.60;;;;;;5012560;28;20453;-44
2021/12/02 00:07:54;;;;;;;1.80;1.33;;;6.50;88.90;;;;;;5012416;28;20048;-47
2021/12/02 00:10:19;;;;;;;2.20;0.68;;;6.50;90.20;;;;;;5012486;28;20185;-48
2021/12/02 00:12:45;;;;;;;4.00;0.85;;;6.50;90.40;;;;;;5011712;28;20038;-47
2021/12/02 00:15:18;;;;;;;3.53;0.85;;;6.40;88.20;;;;;;5012273;28;20025;-45
2021/12/02 00:17:52;;;;;;;4.82;0.93;;;6.40;88.90;;;;;;5012351;28;20025;-46
2021/12/02 00:23:28;;;;;;;6.30;0.85;;;6.30;87.80;;;;;;5012402;28;20052;-44
2021/12/02 00:25:56;;;;;;;2.50;0.85;;;6.30;89.50;;;;;;5011546;28;20030;-44
2021/12/02 00:28:25;;;;;;;3.80;0.60;;;6.30;90.70;;;;;;5011856;28;20028;-47
2021/12/02 00:30:53;;;;;;;3.65;0.73;;;6.30;90.40;;;;;;5012332;28;20406;-48
2021/12/02 00:33:19;;;;;;;2.03;0.60;;;6.30;87.00;;;;;;5012035;28;20030;-47
2021/12/02 00:35:47;;;;;;;6.70;1.33;;;6.30;87.90;;;;;;5012196;28;20060;-47
2021/12/02 00:38:14;;;;;;;5.88;0.93;;;6.30;88.50;;;;;;5011913;28;20026;-46
2021/12/02 00:40:40;;;;;;;5.75;0.90;;;6.20;86.90;;;;;;5011387;28;20393;-50
2021/12/02 00:43:06;;;;;;;5.72;0.63;;;6.30;88.20;;;;;;5011373;28;20030;-49
2021/12/02 00:45:32;;;;;;;3.35;0.50;;;6.20;87.30;;;;;;5012046;28;20399;-47
2021/12/02 00:47:59;;;;;;;1.30;0.40;;;6.20;87.90;;;;;;5011655;28;20508;-45
2021/12/02 00:50:25;;;;;;;2.28;0.60;;;6.30;88.20;;;;;;5011871;28;20491;-50
2021/12/02 00:52:51;;;;;;;2.05;0.70;;;6.20;87.40;;;;;;5011733;28;20025;-47
2021/12/02 00:55:18;;;;;;;1.25;0.50;;;6.20;90.10;;;;;;5011704;28;20014;-49
2021/12/02 00:57:45;;;;;;;1.63;0.50;;;6.20;91.80;;;;;;5010741;28;20026;-45
2021/12/02 01:00:11;;;;;;;2.53;0.63;;;6.10;92.10;;;;;;5011705;28;20041;-47
2021/12/02 01:02:37;;;;;;;2.80;1.20;;;6.10;91.70;;;;;;5009600;28;20076;-48
2021/12/02 01:05:03;;;;;;;2.15;0.45;;;6.10;92.40;;;;;;5011714;28;20030;-48
2021/12/02 01:07:29;;;;;;;3.22;0.60;;;6.10;94.50;;;;;;5010998;28;20615;-45
2021/12/02 01:09:54;;;;;;;2.25;0.52;;;6.00;98.20;;;;;;5011280;28;20044;-47
2021/12/02 01:12:20;;;;;;;1.55;0.47;;;5.90;99.90;;;;;;5010541;28;20076;-47
2021/12/02 01:14:46;;;;;;;0.88;0.50;;;5.90;99.90;;;;;;5011537;28;20025;-49
2021/12/02 01:17:12;;;;;;;0.68;0.20;;;5.80;99.90;;;;;;5011731;28;20416;-45
2021/12/02 01:19:38;;;;;;;1.40;0.22;;;5.70;99.90;;;;;;5011472;28;20021;-47
2021/12/02 01:22:04;;;;;;;1.35;0.57;;;5.60;99.90;;;;;;5011343;28;20086;-47
2021/12/02 01:24:30;;;;;;;4.70;0.60;;;5.50;99.90;;;;;;5010919;28;20523;-47
2021/12/02 01:26:58;;;;;;;1.77;0.40;;;5.40;99.90;;;;;;5010483;28;20062;-48
2021/12/02 01:29:25;;;;;;;1.15;0.50;;;5.30;99.90;;;;;;5011048;28;20057;-48
2021/12/02 01:31:55;;;;;;;0.47;0.40;;;5.10;99.90;;;;;;5011164;28;20030;-47
2021/12/02 01:34:26;;;;;;;3.08;0.60;;;5.00;99.90;;;;;;5009969;28;20025;-46
2021/12/02 01:36:53;;;;;;;0.50;0.20;;;4.90;99.90;;;;;;5012514;28;20026;-45
2021/12/02 01:39:19;;;;;;;0.85;0.20;;;4.80;99.90;;;;;;5012688;28;20036;-46
2021/12/02 01:42:07;;;;;;;1.23;0.45;;;4.70;99.90;;;;;;5011934;28;20040;-43
2021/12/02 01:44:38;;;;;;;2.60;0.43;;;4.60;99.90;;;;;;5012634;28;20030;-45
2021/12/02 01:47:12;;;;;;;2.20;0.20;;;4.50;99.90;;;;;;5012732;28;20026;-47
2021/12/02 01:49:40;;;;;;;0.20;0.20;;;4.50;99.90;;;;;;5012367;28;20042;-46
2021/12/02 01:52:11;;;;;;;0.45;0.10;;;4.50;99.90;;;;;;5012916;28;20029;-45
2021/12/02 01:54:43;;;;;;;0.95;0.30;;;4.50;99.90;;;;;;5017986;28;20026;-47
2021/12/02 01:57:22;;;;;;;0.30;0.25;;;4.50;99.90;;;;;;5031516;28;20080;-44
2021/12/02 01:59:51;;;;;;;1.80;0.30;;;4.50;99.90;;;;;;5032375;28;20025;-47
2021/12/02 02:02:19;;;;;;;1.02;0.45;;;4.50;99.90;;;;;;5030252;28;20033;-44
2021/12/02 02:04:46;;;;;;;0.98;0.30;;;4.40;99.90;;;;;;5012640;28;20030;-46
2021/12/02 02:07:14;;;;;;;0.60;0.22;;;4.40;99.90;;;;;;5012333;28;20057;-47
2021/12/02 02:09:40;;;;;;;0.65;0.30;;;4.30;99.90;;;;;;5012406;28;20030;-47
2021/12/02 02:12:10;;;;;;;1.88;0.30;;;4.20;99.90;;;;;;5011581;28;20018;-44
2021/12/02 02:14:36;;;;;;;0.85;0.40;;;4.20;99.90;;;;;;5012132;28;20022;-49
2021/12/02 02:17:12;;;;;;;1.67;0.40;;;4.20;99.90;;;;;;5012625;28;20414;-46
2021/12/02 02:19:38;;;;;;;0.60;0.20;;;4.10;99.90;;;;;;5015973;28;20485;-46
2021/12/02 02:22:05;;;;;;;1.35;0.28;;;4.10;99.90;;;;;;5016485;28;20034;-47
2021/12/02 02:24:31;;;;;;;0.75;0.32;;;4.10;99.90;;;;;;5016199;28;20034;-47
2021/12/02 02:26:56;;;;;;;0.80;0.15;;;4.10;99.90;;;;;;5015405;28;20022;-44
2021/12/02 02:29:22;;;;;;;1.42;0.40;;;4.00;99.90;;;;;;5016027;28;20465;-47
2021/12/02 02:31:49;;;;;;;1.23;0.38;;;4.10;99.90;;;;;;5016352;28;20101;-47
2021/12/02 02:34:14;;;;;;;0.90;0.30;;;4.00;99.90;;;;;;5011722;28;20108;-46
2021/12/02 02:36:51;;;;;;;1.38;0.60;;;4.00;99.90;;;;;;5016176;28;20064;-44
2021/12/02 02:39:18;;;;;;;0.45;0.25;;;4.00;99.90;;;;;;5016060;28;20054;-44
2021/12/02 02:41:46;;;;;;;0.40;0.25;;;3.90;99.90;;;;;;5014796;28;20037;-46
2021/12/02 02:44:12;;;;;;;1.58;0.40;;;3.90;99.90;;;;;;5016007;28;20025;-49
2021/12/02 02:46:40;;;;;;;2.33;0.50;;;3.80;99.90;;;;;;5015914;28;20030;-46
2021/12/02 02:49:11;;;;;;;1.15;0.95;;;3.80;99.90;;;;;;5015661;28;20493;-44
2021/12/02 02:51:38;;;;;;;0.65;0.30;;;3.70;99.90;;;;;;5016175;28;20452;-46
2021/12/02 02:54:07;;;;;;;0.38;0.28;;;3.70;99.90;;;;;;5016697;28;20026;-48
2021/12/02 02:56:38;;;;;;;0.35;0.20;;;3.60;99.90;;;;;;5034450;28;20025;-49
2021/12/02 03:01:47;;;;;;;2.78;0.50;;;3.60;99.90;;;;;;5035454;28;20026;-47
2021/12/02 03:09:38;;;;;;;1.65;0.50;;;3.70;99.90;;;;;;5015478;28;20025;-46
2021/12/02 03:12:11;;;;;;;2.13;0.50;;;3.60;99.90;;;;;;5014478;28;20402;-45
2021/12/02 03:17:07;;;;;;;1.48;0.50;;;3.60;99.90;;;;;;5015488;28;20485;-46
2021/12/02 03:19:34;;;;;;;4.20;0.90;;;3.60;99.90;;;;;;5015183;28;20088;-44
2021/12/02 03:22:01;;;;;;;1.63;0.50;;;3.60;99.90;;;;;;5015497;28;20037;-45
2021/12/02 03:24:26;;;;;;;5.50;0.75;;;3.60;99.90;;;;;;5015113;28;20037;-45
2021/12/02 03:26:52;;;;;;;3.45;0.70;;;3.60;99.90;;;;;;5014347;28;20029;-45
2021/12/02 03:29:18;;;;;;;2.40;0.50;;;3.60;99.90;;;;;;5014367;28;20080;-47
2021/12/02 03:31:43;;;;;;;2.88;0.35;;;3.50;99.90;;;;;;5014842;28;20030;-45
2021/12/02 03:34:10;;;;;;;1.70;0.60;;;3.50;99.90;;;;;;5015007;28;20034;-46
2021/12/02 03:36:36;;;;;;;1.33;0.50;;;3.50;99.90;;;;;;5015223;28;20096;-47
2021/12/02 03:39:05;;;;;;;1.42;0.40;;;3.60;99.90;;;;;;5014931;28;20425;-45
2021/12/02 03:41:32;;;;;;;0.75;0.40;;;3.60;99.90;;;;;;5013901;28;20032;-47
2021/12/02 03:43:57;;;;;;;4.63;0.70;;;3.60;99.90;;;;;;5014739;28;20493;-46
2021/12/02 03:46:24;;;;;;;1.77;0.60;;;3.70;99.90;;;;;;5014608;28;20037;-48
2021/12/02 03:48:52;;;;;;;2.38;0.77;;;3.70;99.90;;;;;;5008471;28;20124;-47
2021/12/02 03:51:17;;;;;;;4.40;0.45;;;3.70;99.90;;;;;;5014788;28;20461;-44
2021/12/02 03:53:44;;;;;;;3.13;0.43;;;3.70;99.90;;;;;;5014646;28;20116;-45
2021/12/02 03:56:10;;;;;;;2.45;0.50;;;3.70;99.90;;;;;;5032200;28;20381;-44
2021/12/02 03:58:37;;;;;;;0.65;0.30;;;3.60;99.90;;;;;;5034301;28;20013;-46
2021/12/02 04:01:05;;;;;;;1.75;0.40;;;3.60;99.90;;;;;;5034174;28;20117;-45
2021/12/02 04:03:31;;;;;;;2.17;0.40;;;3.60;99.90;;;;;;5022457;28;20034;-47
2021/12/02 04:05:57;;;;;;;3.10;0.60;;;3.50;99.90;;;;;;5014420;28;20026;-47
2021/12/02 04:08:41;;;;;;;2.00;0.60;;;3.50;99.90;;;;;;5014573;28;20049;-47
2021/12/02 04:13:50;;;;;;;1.17;0.40;;;3.50;99.90;;;;;;5014080;28;20053;-47
2021/12/02 04:16:18;;;;;;;2.22;0.60;;;3.50;99.90;;;;;;5014336;28;20404;-44
2021/12/02 04:18:44;;;;;;;3.83;0.60;;;3.50;99.90;;;;;;5014277;28;20026;-48
2021/12/02 04:21:10;;;;;;;1.48;0.52;;;3.60;99.90;;;;;;5014261;28;20018;-46
2021/12/02 04:23:35;;;;;;;1.67;0.70;;;3.60;99.90;;;;;;5014111;28;20025;-44
2021/12/02 04:26:01;;;;;;;2.50;0.68;;;3.60;99.90;;;;;;5013128;28;20014;-46
2021/12/02 04:28:26;;;;;;;0.80;0.40;;;3.60;99.90;;;;;;5014327;28;20441;-47
2021/12/02 04:30:52;;;;;;;3.38;0.90;;;3.60;99.90;;;;;;5013938;28;20029;-48
2021/12/02 04:33:17;;;;;;;1.20;0.32;;;3.60;99.90;;;;;;5014063;28;20068;-48
2021/12/02 04:35:43;;;;;;;4.85;1.13;;;3.60;99.90;;;;;;5013777;28;20033;-46
2021/12/02 04:38:08;;;;;;;1.65;0.63;;;3.60;99.90;;;;;;5014082;28;20033;-46
2021/12/02 04:40:36;;;;;;;1.58;0.50;;;3.70;99.90;;;;;;5012858;28;20038;-47
2021/12/02 04:43:02;;;;;;;0.95;0.57;;;3.70;99.90;;;;;;5012934;28;20030;-49
2021/12/02 04:45:27;;;;;;;0.88;0.38;;;3.70;99.90;;;;;;5013524;28;20481;-47
2021/12/02 04:47:53;;;;;;;3.85;0.82;;;3.70;99.90;;;;;;5013749;28;20116;-45
2021/12/02 04:50:19;;;;;;;1.48;0.50;;;3.70;99.90;;;;;;5013516;28;20046;-48
2021/12/02 04:52:44;;;;;;;2.10;0.47;;;3.80;99.90;;;;;;5013555;28;20030;-45
2021/12/02 04:55:10;;;;;;;1.00;0.50;;;3.80;99.90;;;;;;5023460;28;20083;-47
2021/12/02 04:57:35;;;;;;;2.45;0.70;;;3.80;99.90;;;;;;5032274;28;20018;-46
2021/12/02 05:00:03;;;;;;;2.53;0.50;;;3.90;99.90;;;;;;5033089;28;20043;-46
2021/12/02 05:02:28;;;;;;;4.28;0.50;;;3.90;99.90;;;;;;5029887;28;20068;-47
2021/12/02 05:04:54;;;;;;;1.83;0.40;;;3.90;99.90;;;;;;4995720;28;20026;-47
2021/12/02 05:07:19;;;;;;;1.95;0.45;;;3.90;99.90;;;;;;5013481;28;20624;-46
2021/12/02 05:09:45;;;;;;;1.60;0.60;;;3.90;99.90;;;;;;5009118;28;20030;-47
2021/12/02 05:12:10;;;;;;;3.05;0.75;;;3.90;99.90;;;;;;5012205;28;20448;-44
2021/12/02 05:14:36;;;;;;;1.95;0.68;;;3.90;99.90;;;;;;5012783;28;20029;-47
2021/12/02 05:17:01;;;;;;;5.38;0.45;;;3.90;99.90;;;;;;5012989;28;20026;-45
2021/12/02 05:19:27;;;;;;;2.25;0.43;;;3.90;99.90;;;;;;5013052;28;20068;-47
2021/12/02 05:21:52;;;;;;;1.55;0.85;;;3.90;99.90;;;;;;5012853;28;20593;-44
2021/12/02 05:24:18;;;;;;;0.40;0.30;;;3.90;99.90;;;;;;5013073;28;20030;-50
2021/12/02 05:26:43;;;;;;;2.25;0.50;;;3.90;99.90;;;;;;5011912;28;20426;-47
2021/12/02 05:29:09;;;;;;;1.27;0.50;;;3.90;99.90;;;;;;5012999;28;20028;-47
2021/12/02 05:31:34;;;;;;;1.42;0.40;;;3.90;99.90;;;;;;5012765;28;20030;-49
2021/12/02 05:34:00;;;;;;;1.27;0.47;;;3.90;99.90;;;;;;5012619;28;20029;-46
2021/12/02 05:36:25;;;;;;;2.15;0.68;;;3.90;99.90;;;;;;5012851;28;20026;-44
2021/12/02 05:38:51;;;;;;;3.75;0.52;;;3.90;99.90;;;;;;5012715;28;20097;-48
2021/12/02 05:41:17;;;;;;;1.92;0.45;;;3.90;99.90;;;;;;5011773;28;20068;-46
2021/12/02 05:43:43;;;;;;;2.75;0.60;;;3.90;99.90;;;;;;5012502;28;20026;-46
2021/12/02 05:46:09;;;;;;;3.10;0.60;;;3.90;99.90;;;;;;5012562;28;20022;-46
2021/12/02 05:48:35;;;;;;;2.10;0.57;;;3.90;99.90;;;;;;5012643;28;20025;-48
2021/12/02 05:51:00;;;;;;;2.60;0.50;;;4.00;99.90;;;;;;5012440;28;20029;-46
2021/12/02 05:53:26;;;;;;;2.50;0.70;;;4.00;99.90;;;;;;5012464;28;20068;-47
2021/12/02 05:55:52;;;;;;;2.83;0.40;;;4.00;99.90;;;;;;5027127;28;20021;-44
2021/12/02 05:58:17;;;;;;;2.30;0.50;;;4.00;99.90;;;;;;5027845;28;20473;-47
2021/12/02 06:00:43;;;;;;;0.77;0.38;;;4.00;99.90;;;;;;5011556;28;20033;-45
2021/12/02 06:03:09;;;;;;;1.15;0.45;;;4.00;99.90;;;;;;5012430;28;20429;-47
2021/12/02 06:05:34;;;;;;;0.60;0.40;;;4.00;99.90;;;;;;5012540;28;20026;-43
2021/12/02 06:08:03;;;;;;;0.85;0.63;;;4.00;99.70;;;;;;5012421;28;20155;-47
2021/12/02 06:10:29;;;;;;;0.80;0.30;;;4.00;99.70;;;;;;5012208;28;20034;-49
2021/12/02 06:12:55;;;;;;;0.52;0.45;;;4.00;99.40;;;;;;5011599;28;20030;-46
2021/12/02 06:15:21;;;;;;;3.67;0.43;;;4.00;98.80;;;;;;5012505;28;20037;-46
2021/12/02 06:17:47;;;;;;;1.40;0.50;;;3.90;98.80;;;;;;5012248;28;20069;-46
2021/12/02 06:20:15;;;;;;;2.05;0.40;;;3.90;98.90;;;;;;5012371;28;20026;-46
2021/12/02 06:22:41;;;;;;;0.77;0.60;;;3.90;97.30;;;;;;5012074;28;20030;-49
2021/12/02 06:27:40;;;;;;;1.73;0.30;;;3.90;98.80;;;;;;5011529;28;20032;-45
2021/12/02 06:30:06;;;;;;;1.33;0.65;;;4.00;96.40;;;;;;5012345;28;20030;-45
2021/12/02 06:32:31;;;;;;;0.93;0.40;;;3.90;95.40;;;;;;5012218;28;20065;-48
2021/12/02 06:34:57;;;;;;;1.80;0.55;;;3.90;95.10;;;;;;5012292;28;20421;-46
2021/12/02 06:37:23;;;;;;;1.75;0.50;;;3.90;95.00;;;;;;5009980;28;20033;-48
2021/12/02 06:39:49;;;;;;;1.17;0.50;;;3.90;94.40;;;;;;5011888;28;20049;-45
2021/12/02 06:42:15;;;;;;;1.00;0.45;;;3.90;95.00;;;;;;5011257;28;20381;-48
2021/12/02 06:44:40;;;;;;;2.85;0.73;;;3.90;94.80;;;;;;5012232;28;20497;-46
2021/12/02 06:47:06;;;;;;;2.00;0.60;;;3.90;94.80;;;;;;5011917;28;20034;-44
2021/12/02 06:49:33;;;;;;;1.98;0.60;;;3.90;94.80;;;;;;4994435;28;20038;-44
2021/12/02 06:51:59;;;;;;;1.70;0.50;;;3.90;94.40;;;;;;5012116;28;20018;-53
2021/12/02 06:54:25;;;;;;;1.13;0.63;;;3.80;94.20;;;;;;5015996;28;20465;-46
2021/12/02 06:56:51;;;;;;;0.68;0.13;;;3.80;95.00;;;;;;5030986;28;20034;-44
2021/12/02 06:59:17;;;;;;;1.40;0.52;;;3.80;93.40;;;;;;5031983;28;20036;-45
2021/12/02 07:01:43;;;;;;;1.55;0.60;;;3.80;94.50;;;;;;5031823;28;20112;-46
2021/12/02 07:04:09;;;;;;;1.00;0.55;;;3.80;93.80;;;;;;5014800;28;20084;-45
2021/12/02 07:06:37;;;;;;;3.28;0.50;;;3.70;93.60;;;;;;5015085;28;20040;-44
2021/12/02 07:09:03;;;;;;;0.73;0.70;;;3.80;93.70;;;;;;5015511;28;20068;-48
2021/12/02 07:11:29;;;;;;;1.63;0.70;;;3.70;94.40;;;;;;5014021;28;20021;-46
2021/12/02 07:14:00;;;;;;;2.58;0.88;;;3.70;93.70;;;;;;5015162;28;20018;-45
2021/12/02 07:16:26;;;;;;;4.60;0.80;;;3.70;94.50;;;;;;5015334;28;20014;-44
2021/12/02 07:18:55;;;;;;;1.90;0.60;;;3.70;95.20;;;;;;5015266;28;20365;-44
2021/12/02 07:21:21;;;;;;;0.98;0.60;;;3.70;96.10;;;;;;5015156;28;20053;-46
2021/12/02 07:23:46;;;;;;;4.10;0.60;;;3.60;96.10;;;;;;5015253;28;20064;-46
2021/12/02 07:26:12;;;;;;;2.78;0.73;;;3.70;95.90;;;;;;5014084;28;20030;-46
2021/12/02 07:28:38;;;;;;;2.30;0.60;;;3.70;96.40;;;;;;5015270;28;20018;-45
2021/12/02 07:31:06;;;;;;;1.75;0.55;;;3.60;95.70;;;;;;5014926;28;20037;-46
2021/12/02 07:33:36;;;;;;;2.47;0.95;;;3.60;95.70;;;;;;5015060;28;20022;-46
2021/12/02 07:36:02;;;;;;;1.50;0.70;;;3.70;95.90;;;;;;5014739;28;20022;-46
2021/12/02 07:38:28;;;;;;;2.17;0.73;;;3.60;96.10;;;;;;5015102;28;20038;-46
2021/12/02 07:40:54;;;;;;;3.78;0.68;;;3.60;95.00;;;;;;5013554;28;20065;-44
2021/12/02 07:43:21;;;;;;;3.40;0.80;;;3.60;95.00;;;;;;5015112;28;20101;-47
2021/12/02 07:45:47;;;;;;;1.60;0.50;;;3.60;95.70;;;;;;5015008;28;20026;-47
2021/12/02 07:48:14;;;;;;;2.28;0.90;;;3.60;95.80;;;;;;5014597;28;20429;-46
2021/12/02 07:50:40;;;;;;;2.13;0.40;;;3.60;95.00;;;;;;5014555;28;20104;-46
2021/12/02 07:53:07;;;;;;;2.95;0.95;;;3.70;95.10;;;;;;5014541;28;20477;-45
2021/12/02 07:55:39;;;;;;;7.32;0.85;;;3.70;94.30;;;;;;5026495;28;20018;-46
2021/12/02 07:58:06;;;;;;;2.72;0.68;;;3.70;93.60;;;;;;5034199;28;20499;-44
2021/12/02 08:00:32;;;;;;;1.33;0.70;;;3.70;93.60;;;;;;5034469;28;20030;-44
2021/12/02 08:02:58;;;;;;;2.10;1.27;;;3.70;94.80;;;;;;5026583;28;20213;-44
2021/12/02 08:05:25;;;;;;;1.58;0.50;;;3.70;95.00;;;;;;5014395;28;20049;-46
2021/12/02 08:07:52;;;;;;;2.13;0.70;;;3.70;94.90;;;;;;5014365;28;20026;-47
2021/12/02 08:10:18;;;;;;;1.65;0.80;;;3.80;95.20;;;;;;5014375;28;20076;-46
2021/12/02 08:12:47;;;;;;;2.10;0.68;;;3.80;94.80;;;;;;4995315;28;20049;-45
2021/12/02 08:15:15;;;;;;;0.88;0.50;;;3.80;92.70;;;;;;5014253;28;20018;-44
2021/12/02 08:17:40;;;;;;;0.93;0.63;;;3.80;91.50;;;;;;5013858;28;20108;-47
2021/12/02 08:20:06;;;;;;;1.27;0.60;;;3.80;92.20;;;;;;5014092;28;20106;-49
2021/12/02 08:22:32;;;;;;;2.42;0.50;;;3.80;93.50;;;;;;5014078;28;20033;-46
2021/12/02 08:24:59;;;;;;;1.75;0.50;;;3.90;92.50;;;;;;5014081;28;20030;-44
2021/12/02 08:27:25;;;;;;;1.55;0.60;;;3.80;90.90;;;;;;5012800;28;20079;-46
2021/12/02 08:29:51;;;;;;;2.05;0.70;;;3.80;90.60;;;;;;5014057;28;20124;-44
2021/12/02 08:32:16;;;;;;;1.15;0.63;;;3.80;90.30;;;;;;5013745;28;20105;-48
2021/12/02 08:34:42;;;;;;;0.57;0.32;;;3.80;90.60;;;;;;5013889;28;20026;-47
2021/12/02 08:37:10;;;;;;;2.58;0.60;;;3.90;91.10;;;;;;5013742;28;20056;-45
2021/12/02 08:39:35;;;;;;;0.98;0.47;;;3.90;90.90;;;;;;5013958;28;20018;-47
2021/12/02 08:42:02;;;;;;;3.35;0.68;;;3.90;91.10;;;;;;5012327;28;20037;-45
2021/12/02 08:44:31;;;;;;;2.53;0.50;;;3.90;90.60;;;;;;5013822;28;20026;-46
2021/12/02 08:46:56;;;;;;;3.35;0.70;;;3.90;89.00;;;;;;5013437;28;20082;-49
2021/12/02 08:49:23;;;;;;;3.97;1.00;;;3.90;89.80;;;;;;5013389;28;20069;-49
2021/12/02 08:51:49;;;;;;;1.17;0.77;;;3.90;90.70;;;;;;5013925;28;20053;-46
2021/12/02 08:54:15;;;;;;;1.25;0.57;;;3.90;91.10;;;;;;5015943;28;20053;-44
2021/12/02 08:56:41;;;;;;;0.43;0.30;;;3.90;91.20;;;;;;5032025;28;20399;-47
2021/12/02 08:59:07;;;;;;;1.40;0.50;;;4.00;91.40;;;;;;5033247;28;20029;-44
2021/12/02 09:01:34;;;;;;;2.75;0.80;;;4.00;91.00;;;;;;5033185;28;20037;-45
2021/12/02 09:04:02;;;;;;;1.13;0.57;;;4.00;90.00;;;;;;5017373;28;20045;-45
2021/12/02 09:06:29;;;;;;;2.50;0.60;;;4.00;89.60;;;;;;5013292;28;20062;-46
2021/12/02 09:08:56;;;;;;;2.03;0.60;;;4.10;88.90;;;;;;5013295;28;20531;-46
2021/12/02 09:11:22;;;;;;;0.73;0.47;;;4.10;87.00;;;;;;5012090;28;20416;-44
2021/12/02 09:13:48;;;;;;;2.22;0.40;;;4.20;89.40;;;;;;5013102;28;20029;-46
2021/12/02 09:16:14;;;;;;;1.77;0.50;;;4.30;89.30;;;;;;5013138;28;20472;-44
2021/12/02 09:18:40;;;;;;;3.17;0.65;;;4.40;87.50;;;;;;5013239;28;20122;-44
2021/12/02 09:21:06;;;;;;;2.10;0.80;;;4.50;86.70;;;;;;5013269;28;20033;-46
2021/12/02 09:23:33;;;;;;;0.60;0.50;;;4.60;85.40;;;;;;5012993;28;20206;-44
2021/12/02 09:25:59;;;;;;;1.27;0.57;;;4.70;85.20;;;;;;5011863;28;20028;-44
2021/12/02 09:28:25;;;;;;;0.60;0.60;;;4.80;83.90;;;;;;5012310;28;20113;-46
2021/12/02 09:30:51;;;;;;;1.35;0.60;;;4.90;84.40;;;;;;5012949;28;20034;-44
2021/12/02 09:33:17;;;;;;;3.47;0.85;;;4.90;83.10;;;;;;5012790;28;20080;-46
2021/12/02 09:35:43;;;;;;;3.03;0.85;;;4.80;77.70;;;;;;5012932;28;20085;-43
2021/12/02 09:38:10;;;;;;;5.40;0.70;;;4.80;78.40;;;;;;5012774;28;20465;-46
2021/12/02 09:40:36;;;;;;;1.73;0.60;;;4.80;79.30;;;;;;5011713;28;20076;-44
2021/12/02 09:43:03;;;;;;;4.07;1.35;;;4.70;80.60;;;;;;5012579;28;20034;-46
2021/12/02 09:45:29;;;;;;;2.35;0.60;;;4.70;79.80;;;;;;5012830;28;20133;-46
2021/12/02 09:47:56;;;;;;;2.40;0.60;;;4.60;79.90;;;;;;5013086;28;20124;-44
2021/12/02 09:50:32;;;;;;;2.15;0.80;;;4.60;81.80;;;;;;5012588;28;20492;-45
2021/12/02 09:53:07;;;;;;;;;;;4.60;82.40;;;;;;5013081;28;20026;-47
2021/12/02 09:58:07;;;;;;;1.55;0.40;;;4.70;83.60;;;;;;5032351;28;20052;-45
2021/12/02 10:00:47;;;;;;;4.68;0.65;;;4.60;81.80;;;;;;5032545;28;20104;-46
2021/12/02 10:03:25;;;;;;;1.67;0.68;;;4.60;80.50;;;;;;5022776;28;20084;-45
2021/12/02 10:06:09;;;;;;;1.30;0.50;;;4.60;81.90;;;;;;5012767;28;20380;-46
2021/12/02 10:08:48;;;;;;;2.10;0.43;;;4.50;79.90;;;;;;5012597;28;20076;-44
2021/12/02 10:11:27;;;;;;;1.70;0.60;;;4.50;78.50;;;;;;5011284;28;20029;-47
2021/12/02 10:14:02;;;;;;;5.18;0.80;;;4.50;80.80;;;;;;5012409;28;20029;-44
2021/12/02 10:16:32;;;;;;;1.73;0.52;;;4.40;78.40;;;;;;5012644;28;20540;-47
2021/12/02 10:19:06;;;;;;;1.60;0.60;;;4.40;81.00;;;;;;5012520;28;20387;-44
2021/12/02 10:21:51;;;;;;;2.40;0.85;;;4.30;76.90;;;;;;5012440;28;20025;-45
2021/12/02 10:24:22;;;;;;;1.50;0.88;;;4.30;79.70;;;;;;4994736;28;20026;-47
2021/12/02 10:26:55;;;;;;;6.00;0.60;;;4.40;80.80;;;;;;5011441;28;20485;-47
2021/12/02 10:29:27;;;;;;;4.40;0.82;;;4.40;80.00;;;;;;5012257;28;20707;-47
2021/12/02 10:32:09;;;;;;;2.35;1.00;;;4.40;76.40;;;;;;5012523;28;20370;-46
2021/12/02 10:34:56;;;;;;;2.13;0.90;;;4.40;76.50;;;;;;5012403;28;20029;-45
2021/12/02 10:37:26;;;;;;;;;;;4.40;75.80;;;;;;5012357;28;20079;-48
2021/12/02 10:39:57;;;;;;;1.98;0.90;;;4.40;74.40;;;;;;5014671;28;19906;-46
2021/12/02 10:42:23;;;;;;;3.35;1.50;;;4.30;78.30;;;;;;5014584;28;20034;-48
2021/12/02 10:44:49;;;;;;;1.52;0.80;;;4.40;75.30;;;;;;5016171;28;20057;-44
2021/12/02 10:47:16;;;;;;;2.47;0.88;;;4.30;74.60;;;;;;5015812;28;20052;-48
2021/12/02 10:49:48;;;;;;;2.30;1.00;;;4.20;75.80;;;;;;5015864;28;20046;-45
2021/12/02 10:52:16;;;;;;;4.97;0.95;;;4.10;77.10;;;;;;4998209;28;20401;-45
2021/12/02 10:54:46;;;;;;;3.20;0.95;;;4.10;77.40;;;;;;5021994;28;20014;-44
2021/12/02 10:57:17;;;;;;;3.33;0.98;;;4.20;77.90;;;;;;5034151;28;20112;-46
2021/12/02 10:59:50;;;;;;;3.80;1.40;;;4.20;79.10;;;;;;5035651;28;20025;-44
2021/12/02 11:02:36;;;;;;;4.80;1.50;;;4.20;76.90;;;;;;5033801;28;20025;-47
2021/12/02 11:05:35;;;;;;;6.13;1.67;;;4.10;74.90;;;;;;5015705;28;20030;-46
2021/12/02 11:08:05;;;;;;;4.10;1.27;;;4.10;74.80;;;;;;5014869;28;20030;-44
2021/12/02 11:10:46;;;;;;;1.88;0.90;;;4.00;75.30;;;;;;5014230;28;20069;-44
2021/12/02 11:13:19;;;;;;;1.23;0.50;;;4.00;76.80;;;;;;5015211;28;20469;-44
2021/12/02 11:15:45;;;;;;;1.58;0.88;;;3.90;75.80;;;;;;5015506;28;20065;-46
2021/12/02 11:18:12;;;;;;;1.67;0.65;;;3.90;75.00;;;;;;5015299;28;20053;-45
2021/12/02 11:20:45;;;;;;;3.50;0.70;;;3.80;76.70;;;;;;5015503;28;20054;-44
2021/12/02 11:23:20;;;;;;;2.40;0.70;;;3.80;77.20;;;;;;5015023;28;20033;-46
2021/12/02 11:26:08;;;;;;;0.98;0.55;;;3.90;77.00;;;;;;5014117;28;20128;-44
2021/12/02 11:28:39;;;;;;;2.85;0.93;;;3.80;75.80;;;;;;5015212;28;20026;-44
2021/12/02 11:31:18;;;;;;;2.70;0.70;;;3.80;76.90;;;;;;5015205;28;20026;-45
2021/12/02 11:33:45;;;;;;;1.35;0.45;;;3.80;76.00;;;;;;5014849;28;20057;-43
2021/12/02 11:36:36;;;;;;;1.80;0.70;;;3.80;77.50;;;;;;5015117;28;20021;-46
2021/12/02 11:39:05;;;;;;;2.58;0.60;;;3.70;78.40;;;;;;5010144;28;20393;-46
2021/12/02 11:41:31;;;;;;;1.60;0.88;;;3.70;78.20;;;;;;5013699;28;20037;-46
2021/12/02 11:43:56;;;;;;;2.33;0.70;;;3.70;79.60;;;;;;5014825;28;20018;-46
2021/12/02 11:46:23;;;;;;;2.10;0.65;;;3.70;77.90;;;;;;5014820;28;20381;-44
2021/12/02 11:48:48;;;;;;;1.52;0.60;;;3.70;78.70;;;;;;5014744;28;20045;-44
2021/12/02 11:51:17;;;;;;;1.50;0.68;;;3.60;79.40;;;;;;5014038;28;20030;-48
2021/12/02 11:53:44;;;;;;;1.58;0.73;;;3.60;79.10;;;;;;5014528;28;20030;-46
2021/12/02 11:56:12;;;;;;;2.58;0.50;;;3.60;79.90;;;;;;5031604;28;20029;-46
2021/12/02 11:58:37;;;;;;;3.08;0.80;;;3.60;80.20;;;;;;5034198;28;20496;-47
2021/12/02 12:01:04;;;;;;;1.98;0.60;;;3.60;80.10;;;;;;5034358;28;20025;-47
2021/12/02 12:03:35;;;;;;;1.95;0.50;;;3.70;78.90;;;;;;5022401;28;20158;-46
2021/12/02 12:06:04;;;;;;;1.35;0.70;;;3.70;80.20;;;;;;5014651;28;20478;-47
2021/12/02 12:08:36;;;;;;;2.25;0.60;;;3.70;78.00;;;;;;5014139;28;20034;-45
2021/12/02 12:11:22;;;;;;;1.05;0.75;;;3.70;79.40;;;;;;5013175;28;20030;-51
2021/12/02 12:13:51;;;;;;;4.93;0.65;;;3.80;80.40;;;;;;5014215;28;20485;-45
2021/12/02 12:16:25;;;;;;;2.20;0.75;;;3.80;81.50;;;;;;5014346;28;20026;-48
2021/12/02 12:18:52;;;;;;;3.38;0.65;;;3.90;80.30;;;;;;5014183;28;20026;-46
2021/12/02 12:21:17;;;;;;;1.52;0.55;;;4.00;79.30;;;;;;5014275;28;20033;-44
2021/12/02 12:23:47;;;;;;;3.78;0.95;;;4.10;79.10;;;;;;5013949;28;20025;-44
2021/12/02 12:26:22;;;;;;;3.78;0.70;;;4.20;77.40;;;;;;5012907;28;20030;-49
2021/12/02 12:29:09;;;;;;;1.30;0.60;;;4.20;76.60;;;;;;5014012;28;20030;-46
2021/12/02 12:31:58;;;;;;;1.90;0.60;;;4.30;77.30;;;;;;5014116;28;20022;-47
2021/12/02 12:34:40;;;;;;;2.17;0.50;;;4.50;78.00;;;;;;5013379;28;20137;-44
2021/12/02 12:40:13;;;;;;;2.33;0.70;;;4.70;77.10;;;;;;5013693;28;20103;-46
2021/12/02 12:42:48;;;;;;;0.93;0.43;;;4.80;74.30;;;;;;5012719;28;20026;-46
2021/12/02 12:45:32;;;;;;;2.90;0.50;;;4.80;72.30;;;;;;5013728;28;20072;-46
2021/12/02 12:48:02;;;;;;;1.27;0.50;;;4.70;72.80;;;;;;5013874;28;20053;-47
2021/12/02 12:50:36;;;;;;;4.78;0.63;;;4.50;72.00;;;;;;5013428;28;20152;-44
2021/12/02 12:53:05;;;;;;;0.68;0.40;;;4.40;73.10;;;;;;5013580;28;20018;-44
2021/12/02 12:55:40;;;;;;;2.15;0.95;;;4.20;72.80;;;;;;5025053;28;20053;-45
2021/12/02 12:58:11;;;;;;;1.93;0.80;;;4.10;70.30;;;;;;5013459;28;20156;-47
2021/12/02 13:00:48;;;;;;;0.90;0.60;;;3.90;72.00;;;;;;5014421;28;20025;-44
2021/12/02 13:03:32;;;;;;;1.15;0.70;;;3.80;72.70;;;;;;5012396;28;20229;-46
2021/12/02 13:06:19;;;;;;;1.13;0.43;;;3.70;74.80;;;;;;5013263;28;20389;-44
2021/12/02 13:08:57;;;;;;;1.67;0.60;;;3.70;76.60;;;;;;5013193;28;20029;-44
2021/12/02 13:11:29;;;;;;;2.30;0.70;;;3.60;75.00;;;;;;5012074;28;20113;-44
2021/12/02 13:13:58;;;;;;;1.38;0.57;;;3.60;76.00;;;;;;5012880;28;20022;-47
2021/12/02 13:16:23;;;;;;;3.15;0.73;;;3.50;74.90;;;;;;5013094;28;20081;-46
2021/12/02 13:18:53;;;;;;;1.10;0.55;;;3.50;76.00;;;;;;5013051;28;20505;-47
2021/12/02 13:21:34;;;;;;;2.78;0.65;;;3.40;75.80;;;;;;5013080;28;20022;-45
2021/12/02 13:24:18;;;;;;;2.13;0.68;;;3.40;77.00;;;;;;5013029;28;20022;-44
2021/12/02 13:26:54;;;;;;;1.75;0.50;;;3.30;77.30;;;;;;5011877;28;20033;-46
2021/12/02 13:29:23;;;;;;;1.63;0.65;;;3.30;78.00;;;;;;5012918;28;20442;-47